createdAt,value
2019-01-02T00:02:29.074Z,6.70
2019-01-02T00:05:09.823Z,6.70
2019-01-02T00:07:50.638Z,6.50
2019-01-02T00:10:31.428Z,6.50
2019-01-02T00:13:12.310Z,6.50
2019-01-02T00:15:52.992Z,6.50
2019-01-02T00:18:34.746Z,6.50
2019-01-02T00:21:15.083Z,6.40
2019-01-02T00:23:55.976Z,6.40
2019-01-02T00:26:36.800Z,6.40
2019-01-02T00:29:17.531Z,6.30
2019-01-02T00:31:58.234Z,6.30
2019-01-02T00:34:37.578Z,6.30
2019-01-02T00:37:25.744Z,6.30
2019-01-02T00:40:06.062Z,6.30
2019-01-02T00:42:46.543Z,6.30
2019-01-02T00:45:27.666Z,6.30
2019-01-02T00:48:08.127Z,6.30
2019-01-02T00:50:48.719Z,6.30
2019-01-02T00:53:29.463Z,6.30
2019-01-02T00:56:10.771Z,6.30
2019-01-02T00:58:51.616Z,6.30
2019-01-02T01:01:32.273Z,6.30
2019-01-02T01:04:12.784Z,6.40
2019-01-02T01:06:53.902Z,6.40
2019-01-02T01:09:35.299Z,6.50
2019-01-02T01:12:16.515Z,6.60
2019-01-02T01:14:57.378Z,6.60
2019-01-02T01:17:38.578Z,6.60
2019-01-02T01:20:19.075Z,6.70
2019-01-02T01:22:59.498Z,6.70
2019-01-02T01:25:40.542Z,6.70
2019-01-02T01:28:21.043Z,6.80
2019-01-02T01:31:01.692Z,6.80
2019-01-02T01:33:42.858Z,6.90
2019-01-02T01:36:24.063Z,7.00
2019-01-02T01:39:04.954Z,6.90
2019-01-02T01:41:45.362Z,7.00
2019-01-02T01:44:25.998Z,7.00
2019-01-02T01:47:07.156Z,7.00
2019-01-02T01:49:48.233Z,7.00
2019-01-02T01:52:29.180Z,7.00
2019-01-02T01:55:09.722Z,6.90
2019-01-02T01:57:50.815Z,6.90
2019-01-02T02:00:31.458Z,6.80
2019-01-02T02:03:12.266Z,6.80
2019-01-02T02:05:53.618Z,6.70
2019-01-02T02:08:34.202Z,6.70
2019-01-02T02:11:14.779Z,6.60
2019-01-02T02:13:55.734Z,6.50
2019-01-02T02:16:36.829Z,6.50
2019-01-02T02:19:17.855Z,6.50
2019-01-02T02:21:58.384Z,6.40
2019-01-02T02:24:39.468Z,6.50
2019-01-02T02:27:20.482Z,6.50
2019-01-02T02:30:01.571Z,6.50
2019-01-02T02:32:42.145Z,6.50
2019-01-02T02:35:23.069Z,6.40
2019-01-02T02:38:04.438Z,6.40
2019-01-02T02:40:45.412Z,6.40
2019-01-02T02:43:24.394Z,6.40
2019-01-02T02:46:05.541Z,6.40
2019-01-02T02:48:47.190Z,6.30
2019-01-02T02:51:28.056Z,6.30
2019-01-02T02:54:09.178Z,6.30
2019-01-02T02:56:50.847Z,6.30
2019-01-02T02:59:31.405Z,6.40
2019-01-02T03:02:12.412Z,6.40
2019-01-02T03:04:53.471Z,6.40
2019-01-02T03:07:34.055Z,6.30
2019-01-02T03:10:15.766Z,6.40
2019-01-02T03:12:56.730Z,6.30
2019-01-02T03:15:37.576Z,6.40
2019-01-02T03:18:19.240Z,6.30
2019-01-02T03:20:59.791Z,6.40
2019-01-02T03:23:40.493Z,6.40
2019-01-02T03:26:21.339Z,6.40
2019-01-02T03:29:02.427Z,6.40
2019-01-02T03:31:43.510Z,6.50
2019-01-02T03:34:24.454Z,6.50
2019-01-02T03:37:04.806Z,6.60
2019-01-02T03:39:45.539Z,6.60
2019-01-02T03:42:26.318Z,6.70
2019-01-02T03:45:07.329Z,6.80
2019-01-02T03:47:48.692Z,6.80
2019-01-02T03:50:29.773Z,6.90
2019-01-02T03:53:10.364Z,6.90
2019-01-02T03:55:50.772Z,6.90
2019-01-02T03:58:31.898Z,6.90
2019-01-02T04:01:12.557Z,6.90
2019-01-02T04:03:53.891Z,6.90
2019-01-02T04:06:34.634Z,6.90
2019-01-02T04:09:14.963Z,6.90
2019-01-02T04:11:55.626Z,6.90
2019-01-02T04:14:36.372Z,6.90
2019-01-02T04:17:17.431Z,6.90
2019-01-02T04:19:58.147Z,7.00
2019-01-02T04:22:38.684Z,7.00
2019-01-02T04:25:19.635Z,6.90
2019-01-02T04:28:00.146Z,6.90
2019-01-02T04:30:40.911Z,6.90
2019-01-02T04:33:21.344Z,6.90
2019-01-02T04:36:00.318Z,6.90
2019-01-02T04:38:41.334Z,7.00
2019-01-02T04:41:22.018Z,7.10
2019-01-02T04:44:02.682Z,7.10
2019-01-02T04:46:43.267Z,6.90
2019-01-02T04:49:24.203Z,7.20
2019-01-02T04:52:04.700Z,7.20
2019-01-02T04:54:45.785Z,7.10
2019-01-02T04:57:26.059Z,7.20
2019-01-02T05:00:07.172Z,7.20
2019-01-02T05:02:48.117Z,7.20
2019-01-02T05:05:28.690Z,7.30
2019-01-02T05:08:09.802Z,7.30
2019-01-02T05:10:50.255Z,7.40
2019-01-02T05:13:31.189Z,7.40
2019-01-02T05:16:12.120Z,7.40
2019-01-02T05:18:52.750Z,7.40
2019-01-02T05:21:34.068Z,7.40
2019-01-02T05:24:14.886Z,7.40
2019-01-02T05:26:55.554Z,7.30
2019-01-02T05:29:37.707Z,7.30
2019-01-02T05:32:16.481Z,7.30
2019-01-02T05:35:04.975Z,7.30
2019-01-02T05:37:45.943Z,7.30
2019-01-02T05:40:26.748Z,7.30
2019-01-02T05:43:05.689Z,7.30
2019-01-02T05:45:46.472Z,7.30
2019-01-02T05:48:27.049Z,7.30
2019-01-02T05:51:09.874Z,7.30
2019-01-02T05:53:51.246Z,7.30
2019-01-02T05:56:31.939Z,7.30
2019-01-02T05:59:12.394Z,7.30
2019-01-02T06:01:53.115Z,7.30
2019-01-02T06:04:33.772Z,7.20
2019-01-02T06:07:14.261Z,7.20
2019-01-02T06:09:54.907Z,7.20
2019-01-02T06:12:36.034Z,7.10
2019-01-02T06:15:16.851Z,7.10
2019-01-02T06:17:57.967Z,7.10
2019-01-02T06:20:39.159Z,7.10
2019-01-02T06:23:20.016Z,7.10
2019-01-02T06:26:01.063Z,7.10
2019-01-02T06:28:43.765Z,7.10
2019-01-02T06:31:23.991Z,7.10
2019-01-02T06:33:52.437Z,7.10
2019-01-02T06:36:21.170Z,7.00
2019-01-02T06:38:49.612Z,7.00
2019-01-02T06:41:18.338Z,7.00
2019-01-02T06:43:47.131Z,7.00
2019-01-02T06:46:15.818Z,7.00
2019-01-02T06:48:44.269Z,7.00
2019-01-02T06:51:12.671Z,7.00
2019-01-02T06:53:41.350Z,7.00
2019-01-02T06:56:09.763Z,6.90
2019-01-02T06:58:38.174Z,6.90
2019-01-02T07:01:06.689Z,6.90
2019-01-02T07:03:35.387Z,6.90
2019-01-02T07:06:04.083Z,6.90
2019-01-02T07:08:32.858Z,6.90
2019-01-02T07:11:01.662Z,7.00
2019-01-02T07:13:30.341Z,7.00
2019-01-02T07:15:59.127Z,6.90
2019-01-02T07:18:27.906Z,6.90
2019-01-02T07:20:56.318Z,6.90
2019-01-02T07:23:25.095Z,6.90
2019-01-02T07:25:53.767Z,6.90
2019-01-02T07:28:22.212Z,6.90
2019-01-02T07:30:50.626Z,6.90
2019-01-02T07:33:21.697Z,6.90
2019-01-02T07:36:05.388Z,6.90
2019-01-02T07:38:52.432Z,6.90
2019-01-02T07:41:32.943Z,6.90
2019-01-02T07:44:22.754Z,6.90
2019-01-02T07:47:16.884Z,6.80
2019-01-02T07:50:07.762Z,6.70
2019-01-02T07:52:57.248Z,6.70
2019-01-02T07:55:49.169Z,6.60
2019-01-02T07:58:29.732Z,6.50
2019-01-02T08:01:01.246Z,6.50
2019-01-02T08:03:38.993Z,6.50
2019-01-02T08:06:40.929Z,6.60
2019-01-02T08:09:18.647Z,6.50
2019-01-02T08:12:25.419Z,6.50
2019-01-02T08:15:02.829Z,6.50
2019-01-02T08:17:41.990Z,6.50
2019-01-02T08:20:31.433Z,6.50
2019-01-02T08:23:05.755Z,6.60
2019-01-02T08:25:42.979Z,6.60
2019-01-02T08:28:22.775Z,6.70
2019-01-02T08:31:11.441Z,6.70
2019-01-02T08:33:54.943Z,6.70
2019-01-02T08:36:28.879Z,6.80
2019-01-02T08:39:03.127Z,6.80
2019-01-02T08:41:55.306Z,6.90
2019-01-02T08:44:41.902Z,6.90
2019-01-02T08:47:16.726Z,6.90
2019-01-02T08:49:48.607Z,6.90
2019-01-02T08:52:41.335Z,6.90
2019-01-02T08:55:33.733Z,6.90
2019-01-02T08:58:29.805Z,6.90
2019-01-02T09:01:04.527Z,7.00
2019-01-02T09:03:44.884Z,6.90
2019-01-02T09:06:34.787Z,6.90
2019-01-02T09:09:12.107Z,6.90
2019-01-02T09:11:44.190Z,6.90
2019-01-02T09:14:18.958Z,6.90
2019-01-02T09:16:59.447Z,7.00
2019-01-02T09:19:47.857Z,7.00
2019-01-02T09:22:22.109Z,7.10
2019-01-02T09:24:53.600Z,7.10
2019-01-02T09:27:44.431Z,7.10
2019-01-02T09:30:44.926Z,7.10
2019-01-02T09:33:28.902Z,7.10
2019-01-02T09:36:19.757Z,7.10
2019-01-02T09:38:57.125Z,7.20
2019-01-02T09:41:43.417Z,7.20
2019-01-02T09:44:20.692Z,7.20
2019-01-02T09:46:58.624Z,7.20
2019-01-02T09:49:48.329Z,7.30
2019-01-02T09:52:42.669Z,7.20
2019-01-02T09:55:20.354Z,7.20
2019-01-02T09:57:54.874Z,7.30
2019-01-02T10:00:35.706Z,7.20
2019-01-02T10:03:31.262Z,7.30
2019-01-02T10:06:17.549Z,7.40
2019-01-02T10:09:10.440Z,7.40
2019-01-02T10:12:01.668Z,7.50
2019-01-02T10:14:42.403Z,7.60
2019-01-02T10:17:31.776Z,7.60
2019-01-02T10:20:12.440Z,7.70
2019-01-02T10:23:00.485Z,7.80
2019-01-02T10:25:37.655Z,8.00
2019-01-02T10:28:27.644Z,8.00
2019-01-02T10:31:11.277Z,8.10
2019-01-02T10:34:02.250Z,8.20
2019-01-02T10:37:06.277Z,8.30
2019-01-02T10:39:46.292Z,8.40
2019-01-02T10:42:40.744Z,8.70
2019-01-02T10:45:44.266Z,8.70
2019-01-02T10:48:35.288Z,8.80
2019-01-02T10:51:12.423Z,8.80
2019-01-02T10:53:58.286Z,8.90
2019-01-02T10:56:32.635Z,8.90
2019-01-02T10:59:15.964Z,9.00
2019-01-02T11:02:10.646Z,9.00
2019-01-02T11:04:48.185Z,9.10
2019-01-02T11:07:35.131Z,9.10
2019-01-02T11:10:28.119Z,9.00
2019-01-02T11:13:19.315Z,9.10
2019-01-02T11:16:13.807Z,9.10
2019-01-02T11:18:48.819Z,9.30
2019-01-02T11:21:32.904Z,9.40
2019-01-02T11:24:13.684Z,9.50
2019-01-02T11:27:14.306Z,9.70
2019-01-02T11:29:57.764Z,10.00
2019-01-02T11:32:44.216Z,10.10
2019-01-02T11:35:31.054Z,10.20
2019-01-02T11:38:22.464Z,10.30
2019-01-02T11:40:57.111Z,10.50
2019-01-02T11:44:02.070Z,10.70
2019-01-02T11:46:30.823Z,10.70
2019-01-02T11:48:59.274Z,10.90
2019-01-02T11:51:27.686Z,11.00
2019-01-02T11:53:56.445Z,11.10
2019-01-02T11:56:25.159Z,10.90
2019-01-02T11:58:54.012Z,10.80
2019-01-02T12:01:22.432Z,10.90
2019-01-02T12:03:51.307Z,11.00
2019-01-02T12:06:19.998Z,11.30
2019-01-02T12:08:48.770Z,11.50
2019-01-02T12:11:17.467Z,11.70
2019-01-02T12:13:46.273Z,11.90
2019-01-02T12:16:14.667Z,12.00
2019-01-02T12:18:43.405Z,12.30
2019-01-02T12:21:11.830Z,12.40
2019-01-02T12:23:40.562Z,12.50
2019-01-02T12:26:09.369Z,12.60
2019-01-02T12:28:38.235Z,12.70
2019-01-02T12:31:06.962Z,12.90
2019-01-02T12:33:35.746Z,13.10
2019-01-02T12:36:04.328Z,13.20
2019-01-02T12:38:32.798Z,13.40
2019-01-02T12:41:01.212Z,13.50
2019-01-02T12:43:29.818Z,13.70
2019-01-02T12:45:58.229Z,13.80
2019-01-02T12:48:27.013Z,14.00
2019-01-02T12:50:55.811Z,14.10
2019-01-02T12:53:24.226Z,14.30
2019-01-02T12:55:52.986Z,14.40
2019-01-02T12:58:21.666Z,14.60
2019-01-02T13:00:53.186Z,14.30
2019-01-02T13:03:33.999Z,14.30
2019-01-02T13:06:29.999Z,14.30
2019-01-02T13:09:13.433Z,14.40
2019-01-02T13:11:53.474Z,14.40
2019-01-02T13:15:00.492Z,14.40
2019-01-02T13:17:47.400Z,14.50
2019-01-02T13:20:40.240Z,14.60
2019-01-02T13:23:17.342Z,14.80
2019-01-02T13:25:52.059Z,14.80
2019-01-02T13:28:26.579Z,14.80
2019-01-02T13:31:19.112Z,14.80
2019-01-02T13:34:08.791Z,14.80
2019-01-02T13:36:43.199Z,14.80
2019-01-02T13:39:15.062Z,14.80
2019-01-02T13:42:03.088Z,14.80
2019-01-02T13:44:46.969Z,14.90
2019-01-02T13:47:20.988Z,14.90
2019-01-02T13:50:07.621Z,14.90
2019-01-02T13:52:36.039Z,14.80
2019-01-02T13:55:08.030Z,14.80
2019-01-02T13:57:36.788Z,14.80
2019-01-02T14:00:08.874Z,14.70
2019-01-02T14:02:38.577Z,14.60
2019-01-02T14:05:10.354Z,14.50
2019-01-02T14:07:39.217Z,14.30
2019-01-02T14:10:08.411Z,14.20
2019-01-02T14:12:37.091Z,14.00
2019-01-02T14:15:07.117Z,13.90
2019-01-02T14:17:35.793Z,13.70
2019-01-02T14:20:06.862Z,13.60
2019-01-02T14:22:35.550Z,13.60
2019-01-02T14:25:05.240Z,13.40
2019-01-02T14:27:34.139Z,13.40
2019-01-02T14:30:02.540Z,13.30
2019-01-02T14:32:31.391Z,13.30
2019-01-02T14:34:59.810Z,13.30
2019-01-02T14:37:28.568Z,13.50
2019-01-02T14:39:56.982Z,13.40
2019-01-02T14:42:25.723Z,13.40
2019-01-02T14:44:54.412Z,13.50
2019-01-02T14:47:23.225Z,13.40
2019-01-02T14:49:51.990Z,13.30
2019-01-02T14:52:20.762Z,13.20
2019-01-02T14:54:49.176Z,13.00
2019-01-02T14:57:17.622Z,12.80
2019-01-02T14:59:46.323Z,12.50
2019-01-02T15:02:14.763Z,12.30
2019-01-02T15:04:43.477Z,12.10
2019-01-02T15:07:12.282Z,11.90
2019-01-02T15:09:40.973Z,11.70
2019-01-02T15:12:09.743Z,11.50
2019-01-02T15:14:38.163Z,11.40
2019-01-02T15:17:06.902Z,11.20
2019-01-02T15:19:35.325Z,11.00
2019-01-02T15:22:04.935Z,10.90
2019-01-02T15:24:33.883Z,10.80
2019-01-02T15:27:02.679Z,10.70
2019-01-02T15:29:31.138Z,10.50
2019-01-02T15:31:59.845Z,10.50
2019-01-02T15:34:28.269Z,10.40
2019-01-02T15:36:56.708Z,10.30
2019-01-02T15:39:25.129Z,10.20
2019-01-02T15:41:53.913Z,10.10
2019-01-02T15:44:22.664Z,10.10
2019-01-02T15:46:51.345Z,10.00
2019-01-02T15:49:20.126Z,9.90
2019-01-02T15:51:48.552Z,9.90
2019-01-02T15:54:17.298Z,9.80
2019-01-02T15:56:45.780Z,9.70
2019-01-02T15:59:14.568Z,9.70
2019-01-02T16:01:43.263Z,9.60
2019-01-02T16:04:12.019Z,9.60
2019-01-02T16:06:40.460Z,9.60
2019-01-02T16:09:08.951Z,9.50
2019-01-02T16:11:37.988Z,9.50
2019-01-02T16:14:06.774Z,9.40
2019-01-02T16:16:35.194Z,9.40
2019-01-02T16:19:04.034Z,9.30
2019-01-02T16:21:32.730Z,9.30
2019-01-02T16:24:01.166Z,9.30
2019-01-02T16:26:29.659Z,9.20
2019-01-02T16:28:58.488Z,9.20
2019-01-02T16:31:27.175Z,9.10
2019-01-02T16:33:55.977Z,9.10
2019-01-02T16:36:24.932Z,9.00
2019-01-02T16:38:53.369Z,9.00
2019-01-02T16:41:22.104Z,8.90
2019-01-02T16:43:50.909Z,8.90
2019-01-02T16:46:19.324Z,8.80
2019-01-02T16:48:48.151Z,8.80
2019-01-02T16:51:16.852Z,8.80
2019-01-02T16:53:45.320Z,8.70
2019-01-02T16:56:13.783Z,8.70
2019-01-02T16:58:42.609Z,8.60
2019-01-02T17:01:11.018Z,8.50
2019-01-02T17:03:39.458Z,8.50
2019-01-02T17:06:08.136Z,8.40
2019-01-02T17:08:36.588Z,8.40
2019-01-02T17:11:05.317Z,8.40
2019-01-02T17:13:33.761Z,8.40
2019-01-02T17:16:02.468Z,8.30
2019-01-02T17:18:31.477Z,8.20
2019-01-02T17:20:59.907Z,8.20
2019-01-02T17:23:28.642Z,8.20
2019-01-02T17:25:57.089Z,8.10
2019-01-02T17:28:25.611Z,8.10
2019-01-02T17:30:54.490Z,8.10
2019-01-02T17:33:22.906Z,8.10
2019-01-02T17:35:51.585Z,8.00
2019-01-02T17:38:20.005Z,8.00
2019-01-02T17:40:48.448Z,7.90
2019-01-02T17:43:17.138Z,7.90
2019-01-02T17:45:45.899Z,7.90
2019-01-02T17:48:14.371Z,7.90
2019-01-02T17:50:43.141Z,7.80
2019-01-02T17:53:11.837Z,7.80
2019-01-02T17:55:40.289Z,7.80
2019-01-02T17:58:08.829Z,7.80
2019-01-02T18:00:37.402Z,7.80
2019-01-02T18:03:06.195Z,7.70
2019-01-02T18:05:34.792Z,7.70
2019-01-02T18:08:03.541Z,7.70
2019-01-02T18:10:32.324Z,7.60
2019-01-02T18:13:00.788Z,7.60
2019-01-02T18:15:29.234Z,7.50
2019-01-02T18:17:57.670Z,7.50
2019-01-02T18:20:26.568Z,7.40
2019-01-02T18:22:54.971Z,7.40
2019-01-02T18:25:23.727Z,7.30
2019-01-02T18:27:52.134Z,7.30
2019-01-02T18:30:20.992Z,7.30
2019-01-02T18:32:49.608Z,7.20
2019-01-02T18:35:18.079Z,7.20
2019-01-02T18:37:46.480Z,7.10
2019-01-02T18:40:15.059Z,7.10
2019-01-02T18:42:43.472Z,7.00
2019-01-02T18:45:11.912Z,7.00
2019-01-02T18:47:40.392Z,6.90
2019-01-02T18:50:09.759Z,6.90
2019-01-02T18:52:38.568Z,6.90
2019-01-02T18:55:07.661Z,6.80
2019-01-02T18:57:36.075Z,6.80
2019-01-02T19:00:06.427Z,6.70
2019-01-02T19:02:35.129Z,6.70
2019-01-02T19:05:04.635Z,6.70
2019-01-02T19:07:34.319Z,6.60
2019-01-02T19:10:02.753Z,6.70
2019-01-02T19:12:31.535Z,6.70
2019-01-02T19:15:00.512Z,6.60
2019-01-02T19:17:28.930Z,6.60
2019-01-02T19:19:57.338Z,6.70
2019-01-02T19:22:25.778Z,6.70
2019-01-02T19:24:54.319Z,6.70
2019-01-02T19:27:22.830Z,6.80
2019-01-02T19:29:51.238Z,6.80
2019-01-02T19:32:20.174Z,6.80
2019-01-02T19:34:48.583Z,6.90
2019-01-02T19:37:17.422Z,6.90
2019-01-02T19:39:45.827Z,6.90
2019-01-02T19:42:14.715Z,6.90
2019-01-02T19:44:43.399Z,6.90
2019-01-02T19:47:11.857Z,6.90
2019-01-02T19:49:40.262Z,6.90
2019-01-02T19:52:09.044Z,6.90
2019-01-02T19:54:37.734Z,6.90
2019-01-02T19:57:06.625Z,6.90
2019-01-02T19:59:35.312Z,6.90
2019-01-02T20:02:04.288Z,6.90
2019-01-02T20:04:33.090Z,6.90
2019-01-02T20:07:01.532Z,6.90
2019-01-02T20:09:30.259Z,6.90
2019-01-02T20:11:58.717Z,6.90
2019-01-02T20:14:27.118Z,6.90
2019-01-02T20:16:55.872Z,6.80
2019-01-02T20:19:24.674Z,6.80
2019-01-02T20:21:53.463Z,6.80
2019-01-02T20:24:22.142Z,6.70
2019-01-02T20:26:55.357Z,6.70
2019-01-02T20:29:21.404Z,6.60
2019-01-02T20:31:50.155Z,6.60
2019-01-02T20:34:18.854Z,6.60
2019-01-02T20:36:47.628Z,6.60
2019-01-02T20:39:16.353Z,6.60
2019-01-02T20:41:44.821Z,6.60
2019-01-02T20:44:13.233Z,6.60
2019-01-02T20:46:41.735Z,6.60
2019-01-02T20:49:10.200Z,6.60
2019-01-02T20:51:38.858Z,6.60
2019-01-02T20:54:07.604Z,6.60
2019-01-02T20:56:36.407Z,6.60
2019-01-02T20:59:05.280Z,6.60
2019-01-02T21:01:33.817Z,6.60
2019-01-02T21:04:02.282Z,6.50
2019-01-02T21:06:30.687Z,6.50
2019-01-02T21:08:59.201Z,6.40
2019-01-02T21:11:27.989Z,6.40
2019-01-02T21:14:15.781Z,6.40
2019-01-02T21:17:03.575Z,6.40
2019-01-02T21:19:44.454Z,6.40
2019-01-02T21:22:25.448Z,6.40
2019-01-02T21:25:06.344Z,6.40
2019-01-02T21:27:47.304Z,6.40
2019-01-02T21:30:27.735Z,6.40
2019-01-02T21:33:08.540Z,6.40
2019-01-02T21:35:49.024Z,6.40
2019-01-02T21:38:30.331Z,6.40
2019-01-02T21:41:11.167Z,6.40
2019-01-02T21:43:51.542Z,6.40
2019-01-02T21:46:32.588Z,6.40
2019-01-02T21:49:13.478Z,6.40
2019-01-02T21:51:54.311Z,6.50
2019-01-02T21:54:35.343Z,6.50
2019-01-02T21:57:16.195Z,6.50
2019-01-02T21:59:57.219Z,6.50
2019-01-02T22:02:40.358Z,6.50
2019-01-02T22:05:19.889Z,6.50
2019-01-02T22:08:00.551Z,6.50
2019-01-02T22:10:41.042Z,6.50
2019-01-02T22:13:21.884Z,6.50
2019-01-02T22:16:02.649Z,6.50
2019-01-02T22:18:43.135Z,6.50
2019-01-02T22:21:23.903Z,6.50
2019-01-02T22:24:04.339Z,6.50
2019-01-02T22:26:45.370Z,6.50
2019-01-02T22:29:26.391Z,6.50
2019-01-02T22:32:06.918Z,6.60
2019-01-02T22:34:47.430Z,6.60
2019-01-02T22:37:28.212Z,6.50
2019-01-02T22:40:09.053Z,6.50
2019-01-02T22:42:49.823Z,6.50
2019-01-02T22:45:30.599Z,6.50
2019-01-02T22:48:11.971Z,6.50
2019-01-02T22:50:52.437Z,6.40
2019-01-02T22:53:33.049Z,6.30
2019-01-02T22:56:14.178Z,6.30
2019-01-02T22:58:54.801Z,6.30
2019-01-02T23:01:37.347Z,6.30
2019-01-02T23:04:37.380Z,6.20
2019-01-02T23:07:37.609Z,6.20
2019-01-02T23:10:37.539Z,6.20
2019-01-02T23:13:37.043Z,6.10
2019-01-02T23:19:29.252Z,6.10
2019-01-02T23:22:29.798Z,6.00
2019-01-02T23:25:12.548Z,6.00
2019-01-02T23:27:58.453Z,6.10
2019-01-02T23:30:58.498Z,6.10
2019-01-02T23:33:40.408Z,6.10
2019-01-02T23:36:39.823Z,6.10
2019-01-02T23:39:40.153Z,6.10
2019-01-02T23:45:33.224Z,6.20
2019-01-02T23:48:40.271Z,6.30
2019-01-02T23:51:40.242Z,6.30
2019-01-02T23:54:39.951Z,6.30
2019-01-02T23:57:39.398Z,6.30
